Nord Sincere — 3FKW5 — position and weather

sailwx.info

Track history (hours):
 
Tides and Currents Weather Stations Pressure Air Temp Water Temp Dewpoint Dewpoint Depression Visibility Wind Speed Wind Dir Waves Ship Positions

Nord Sincere

Last reported at 2018-Jun-22 22:34 UTC. Time now 2018-Jun-22 23:03 UTC.
Position N 53°12' W 005°26'.

Length 169 m; draft 5.5 m.

Type: Cargo ship. MMSI: 356747000.

Date/timePositionNaut miles runAvg speedWind from/ knotsBaromVisibWave heightAir tempDewpointWater temp
2018-Jun-22 22:34N 53°12' W 005°26'1211.3
2018-Jun-22 21:31N 53°00' W 005°29'111.0
2018-Jun-22 21:25N 52°59' W 005°29'511.1
2018-Jun-22 21:00N 52°54' W 005°31'1611.9
2018-Jun-22 19:38N 52°38' W 005°35'212.4
2018-Jun-22 19:29N 52°37' W 005°35'1112.9
2018-Jun-22 18:39N 52°26' W 005°38'213.4
2018-Jun-22 18:30N 52°24' W 005°38'4314.2
2018-Jun-22 15:29N 51°42' W 005°50'1013.8
2018-Jun-22 14:47N 51°32' W 005°55'413.7
2018-Jun-22 14:30N 51°29' W 005°56'713.6
2018-Jun-22 13:58N 51°22' W 006°00'1413.2
2018-Jun-22 12:57N 51°09' W 006°06'613.1
2018-Jun-22 12:30N 51°03' W 006°09'18511.5
2018-Jun-21 20:28N 47°60' W 005°41'710.9
2018-Jun-21 19:48N 47°55' W 005°32'2012.6
2018-Jun-21 18:13N 47°44' W 005°07'312.2
2018-Jun-21 17:59N 47°43' W 005°03'1912.5
2018-Jun-21 16:25N 47°33' W 004°39'612.2
2018-Jun-21 15:58N 47°30' W 004°32'711.2
2018-Jun-21 15:17N 47°26' W 004°23'0 0.6
2018-Jun-21 14:59N 47°26' W 004°23'5 1.3
2018-Jun-21 11:21N 47°30' W 004°24'1 2.0
2018-Jun-21 10:39N 47°32' W 004°24'1 2.1
2018-Jun-21 10:21N 47°32' W 004°24'1 2.1
2018-Jun-21 09:57N 47°33' W 004°25'0 0.4
2018-Jun-21 09:29N 47°33' W 004°25'3 6.8
2018-Jun-21 09:00N 47°30' W 004°26'4 9.1
2018-Jun-21 08:30N 47°26' W 004°28'1 1.4
2018-Jun-21 07:57N 47°26' W 004°29'1 2.0
2018-Jun-21 07:30N 47°27' W 004°30'2 1.9
2018-Jun-21 06:13N 47°29' W 004°31'0 1.7
2018-Jun-21 05:58N 47°29' W 004°32'1 1.5
2018-Jun-21 05:30N 47°30' W 004°32'1 1.4
2018-Jun-21 05:00N 47°30' W 004°33'1 1.2
2018-Jun-21 04:30N 47°31' W 004°33'1 1.4
2018-Jun-21 04:00N 47°31' W 004°34'1 1.5
2018-Jun-21 03:30N 47°32' W 004°34'1 1.6
2018-Jun-21 03:00N 47°33' W 004°35'1 1.6
2018-Jun-21 02:23N 47°34' W 004°35'1 1.6
2018-Jun-21 02:00N 47°34' W 004°36'1 1.7
2018-Jun-21 01:30N 47°35' W 004°36'1 1.9
2018-Jun-21 00:52N 47°36' W 004°37'1 2.2
2018-Jun-21 00:30N 47°37' W 004°38'1 2.4
2018-Jun-20 23:55N 47°38' W 004°39'1 3.1
2018-Jun-20 23:30N 47°39' W 004°40'2 1.3
2018-Jun-20 21:43N 47°37' W 004°39'3 9.0
2018-Jun-20 21:22N 47°35' W 004°35'4 9.6
2018-Jun-20 20:58N 47°34' W 004°30'1 1.6
2018-Jun-20 20:30N 47°34' W 004°29'1 2.0
2018-Jun-20 20:00N 47°34' W 004°30'1 1.8
2018-Jun-20 19:30N 47°35' W 004°31'1 1.6
2018-Jun-20 19:00N 47°35' W 004°32'1 1.5
2018-Jun-20 18:24N 47°36' W 004°33'1 1.4
2018-Jun-20 18:00N 47°36' W 004°34'1 1.5
2018-Jun-20 17:30N 47°36' W 004°35'1 1.6
2018-Jun-20 17:00N 47°37' W 004°36'1 1.6
2018-Jun-20 16:12N 47°37' W 004°38'0 1.3
2018-Jun-20 16:00N 47°37' W 004°38'1 1.2
2018-Jun-20 15:19N 47°37' W 004°39'2 6.5
2018-Jun-20 14:58N 47°35' W 004°39'2 0.8
2018-Jun-20 12:23N 47°35' W 004°42'1 1.6
2018-Jun-20 11:59N 47°36' W 004°43'1 1.8
2018-Jun-20 11:14N 47°37' W 004°44'1 1.9
2018-Jun-20 10:50N 47°38' W 004°44'1 2.0
2018-Jun-20 10:29N 47°38' W 004°45'1 2.1
2018-Jun-20 09:56N 47°39' W 004°46'1 2.0
2018-Jun-20 09:29N 47°40' W 004°47'1 2.0
2018-Jun-20 08:59N 47°40' W 004°48'1 1.8
2018-Jun-20 08:29N 47°41' W 004°49'1 1.8
2018-Jun-20 07:59N 47°41' W 004°50'1 1.5
2018-Jun-20 07:23N 47°42' W 004°52'1 1.4
2018-Jun-20 06:56N 47°42' W 004°52'1 1.2
2018-Jun-20 06:29N 47°42' W 004°53'1 1.2
2018-Jun-20 06:00N 47°42' W 004°54'1 1.6
2018-Jun-20 05:30N 47°42' W 004°55'4 7.7
2018-Jun-20 05:00N 47°40' W 004°60'611.4
2018-Jun-20 04:29N 47°35' W 005°05'4 7.8
2018-Jun-20 03:58N 47°32' W 005°09'0 0.9
2018-Jun-20 03:29N 47°32' W 005°09'0 0.7
2018-Jun-20 02:53N 47°33' W 005°09'0 0.8
2018-Jun-20 02:29N 47°33' W 005°09'1 1.1
2018-Jun-20 01:50N 47°34' W 005°08'1 1.6
2018-Jun-20 01:30N 47°34' W 005°08'4 1.6
2018-Jun-19 22:42N 47°38' W 005°07'0 1.8
2018-Jun-19 22:29N 47°39' W 005°07'9 2.3
2018-Jun-19 18:29N 47°48' W 005°03'0 0.5
2018-Jun-19 17:48N 47°47' W 005°03'0 1.6
2018-Jun-19 17:30N 47°47' W 005°03'1 1.7
2018-Jun-19 17:00N 47°47' W 005°05'2 3.6
2018-Jun-19 16:29N 47°46' W 005°07'6 9.9
2018-Jun-19 15:54N 47°45' W 005°16'1312.1
2018-Jun-19 14:49N 47°41' W 005°34'412.7
2018-Jun-19 14:30N 47°39' W 005°39'1313.1
2018-Jun-19 13:33N 47°28' W 005°49'512.5
2018-Jun-19 13:11N 47°24' W 005°53'311.8
2018-Jun-19 12:58N 47°22' W 005°55'711.9
2018-Jun-19 12:24N 47°17' W 006°00'1012.9
2018-Jun-19 11:40N 47°09' W 006°08'1012.9
2018-Jun-19 10:53N 47°00' W 006°16'1613.1
2018-Jun-19 09:40N 46°47' W 006°29'43111.0
2018-Jun-17 18:36N 40°08' W 010°12'1 9.6
2018-Jun-17 18:30N 40°07' W 010°13'5 9.3
2018-Jun-17 18:00N 40°03' W 010°15'4 8.8
2018-Jun-17 17:30N 39°59' W 010°18'4 9.0
2018-Jun-17 17:01N 39°55' W 010°20'5 9.4
2018-Jun-17 16:30N 39°50' W 010°23'5 9.4
2018-Jun-17 16:00N 39°46' W 010°25'26 9.4
2018-Jun-17 13:12N 39°22' W 010°39'3 8.8
2018-Jun-17 12:50N 39°19' W 010°41'3 8.3
2018-Jun-17 12:28N 39°16' W 010°42'5 8.6
2018-Jun-17 11:55N 39°12' W 010°45'5 9.1
2018-Jun-17 11:20N 39°07' W 010°45'3 8.6
2018-Jun-17 11:00N 39°04' W 010°45'5 8.3
2018-Jun-17 10:27N 38°59' W 010°45'5 8.9
2018-Jun-17 09:51N 38°54' W 010°45'7 8.5
2018-Jun-17 09:02N 38°47' W 010°46'0 9.0
2018-Jun-17 09:00N 38°47' W 010°46'5 8.5
2018-Jun-17 08:23N 38°42' W 010°46'3 9.0
2018-Jun-17 08:00N 38°38' W 010°46'4 8.8
2018-Jun-17 07:30N 38°34' W 010°45'5 8.9
2018-Jun-17 06:53N 38°28' W 010°44'3 8.6
2018-Jun-17 06:29N 38°25' W 010°43'7 9.4
2018-Jun-17 05:42N 38°18' W 010°41'2 8.6
2018-Jun-17 05:27N 38°16' W 010°40'7 9.2
2018-Jun-17 04:43N 38°09' W 010°38'6 9.1
2018-Jun-17 04:01N 38°03' W 010°36'0 9.8
2018-Jun-17 04:01N 38°03' W 010°36'21 9.5
2018-Jun-17 01:47N 37°42' W 010°30'3 9.3
2018-Jun-17 01:30N 37°40' W 010°29'5 9.2
2018-Jun-17 01:00N 37°35' W 010°28'5 8.7
2018-Jun-17 00:29N 37°31' W 010°27'42 8.7
2018-Jun-16 19:41N 36°50' W 010°15'2 9.0
2018-Jun-16 19:27N 36°48' W 010°15'4 8.5
2018-Jun-16 19:00N 36°44' W 010°14'4 8.6
2018-Jun-16 18:30N 36°40' W 010°13'5 9.2
2018-Jun-16 18:00N 36°36' W 010°11'5 9.9
2018-Jun-16 17:30N 36°32' W 010°07'5 9.4
2018-Jun-16 17:00N 36°28' W 010°03'5 9.0
2018-Jun-16 16:30N 36°25' W 009°59'14 9.0
2018-Jun-16 14:53N 36°16' W 009°45'19 9.1
2018-Jun-16 12:48N 36°06' W 009°25'3 9.4
2018-Jun-16 12:28N 36°05' W 009°21'6 9.7
2018-Jun-16 11:48N 36°03' W 009°14'1510.1
2018-Jun-16 10:20N 35°60' W 008°56'410.6
2018-Jun-16 10:00N 35°59' W 008°52'510.5
2018-Jun-16 09:30N 35°59' W 008°45'2711.5
2018-Jun-16 07:10N 35°59' W 008°12'813.7
2018-Jun-16 06:33N 35°59' W 008°01'114.0
2018-Jun-16 06:30N 35°59' W 008°01'713.6
2018-Jun-16 06:00N 35°59' W 007°52'612.5
2018-Jun-16 05:30N 35°59' W 007°44'612.7
2018-Jun-16 05:00N 35°59' W 007°37'712.8
2018-Jun-16 04:28N 35°59' W 007°28'613.1
2018-Jun-16 03:59N 35°59' W 007°20'713.2
2018-Jun-16 03:28N 35°58' W 007°12'613.1
2018-Jun-16 02:59N 35°58' W 007°04'613.1
2018-Jun-16 02:30N 35°58' W 006°56'5514.0
2018-Jun-15 22:36N 35°58' W 005°49'214.4
2018-Jun-15 22:29N 35°58' W 005°47'713.2
2018-Jun-15 21:55N 35°57' W 005°38'511.7
2018-Jun-15 21:31N 35°59' W 005°32'510.2
2018-Jun-15 21:01N 36°00' W 005°26'4 8.9
2018-Jun-15 20:30N 36°01' W 005°21'510.0
2018-Jun-15 20:00N 36°03' W 005°15'611.1
2018-Jun-15 19:29N 36°04' W 005°08'18513.3
2018-Jun-15 05:35N 36°25' W 001°20'1014.3
2018-Jun-15 04:53N 36°26' W 001°08'1014.6
2018-Jun-15 04:13N 36°28' W 000°56'314.4
2018-Jun-15 03:59N 36°29' W 000°52'714.1
2018-Jun-15 03:29N 36°29' W 000°43'714.4
2018-Jun-15 03:00N 36°30' W 000°35'714.8
2018-Jun-15 02:30N 36°31' W 000°26'714.8
2018-Jun-15 02:00N 36°32' W 000°17'914.8
2018-Jun-15 01:22N 36°34' W 000°05'814.6
2018-Jun-15 00:51N 36°35' E 000°04'814.8
2018-Jun-15 00:19N 36°36' E 000°14'514.9
2018-Jun-15 00:00N 36°36' E 000°20'814.6
2018-Jun-14 23:30N 36°37' E 000°29'714.6
2018-Jun-14 23:00N 36°38' E 000°38'714.4
2018-Jun-14 22:30N 36°39' E 000°47'1314.1
2018-Jun-14 21:36N 36°41' E 001°03'114.1
2018-Jun-14 21:30N 36°41' E 001°04'714.0
2018-Jun-14 21:00N 36°43' E 001°13'713.7
2018-Jun-14 20:30N 36°44' E 001°21'2013.5
2018-Jun-14 19:03N 36°46' E 001°46'013.7
2018-Jun-14 19:01N 36°46' E 001°46'713.8
2018-Jun-14 18:30N 36°48' E 001°55'713.8
2018-Jun-14 18:00N 36°49' E 002°03'3614.2
2018-Jun-14 15:31N 36°54' E 002°47'014.6
2018-Jun-14 15:30N 36°54' E 002°47'38 1.0
2018-Jun-12 23:38N 37°12' E 003°29'  
Track history (hours):
 
Tides and Currents Weather Stations Pressure Air Temp Water Temp Dewpoint Dewpoint Depression Visibility Wind Speed Wind Dir Waves Ship Positions

Nord Sincere

Last reported at 2018-Jun-22 22:34 UTC. Time now 2018-Jun-22 23:03 UTC.
Position N 53°12' W 005°26'.

Length 169 m; draft 5.5 m.

Type: Cargo ship. MMSI: 356747000.

Date/timePositionNaut miles runAvg speedWind from/ knotsBaromVisibWave heightAir tempDewpointWater temp
2018-Jun-22 22:34N 53°12' W 005°26'1211.3
2018-Jun-22 21:31N 53°00' W 005°29'111.0
2018-Jun-22 21:25N 52°59' W 005°29'511.1
2018-Jun-22 21:00N 52°54' W 005°31'1611.9
2018-Jun-22 19:38N 52°38' W 005°35'212.4
2018-Jun-22 19:29N 52°37' W 005°35'1112.9
2018-Jun-22 18:39N 52°26' W 005°38'213.4
2018-Jun-22 18:30N 52°24' W 005°38'4314.2
2018-Jun-22 15:29N 51°42' W 005°50'1013.8
2018-Jun-22 14:47N 51°32' W 005°55'413.7
2018-Jun-22 14:30N 51°29' W 005°56'713.6
2018-Jun-22 13:58N 51°22' W 006°00'1413.2
2018-Jun-22 12:57N 51°09' W 006°06'613.1
2018-Jun-22 12:30N 51°03' W 006°09'18511.5
2018-Jun-21 20:28N 47°60' W 005°41'710.9
2018-Jun-21 19:48N 47°55' W 005°32'2012.6
2018-Jun-21 18:13N 47°44' W 005°07'312.2
2018-Jun-21 17:59N 47°43' W 005°03'1912.5
2018-Jun-21 16:25N 47°33' W 004°39'612.2
2018-Jun-21 15:58N 47°30' W 004°32'711.2
2018-Jun-21 15:17N 47°26' W 004°23'0 0.6
2018-Jun-21 14:59N 47°26' W 004°23'5 1.3
2018-Jun-21 11:21N 47°30' W 004°24'1 2.0
2018-Jun-21 10:39N 47°32' W 004°24'1 2.1
2018-Jun-21 10:21N 47°32' W 004°24'1 2.1
2018-Jun-21 09:57N 47°33' W 004°25'0 0.4
2018-Jun-21 09:29N 47°33' W 004°25'3 6.8
2018-Jun-21 09:00N 47°30' W 004°26'4 9.1
2018-Jun-21 08:30N 47°26' W 004°28'1 1.4
2018-Jun-21 07:57N 47°26' W 004°29'1 2.0
2018-Jun-21 07:30N 47°27' W 004°30'2 1.9
2018-Jun-21 06:13N 47°29' W 004°31'0 1.7
2018-Jun-21 05:58N 47°29' W 004°32'1 1.5
2018-Jun-21 05:30N 47°30' W 004°32'1 1.4
2018-Jun-21 05:00N 47°30' W 004°33'1 1.2
2018-Jun-21 04:30N 47°31' W 004°33'1 1.4
2018-Jun-21 04:00N 47°31' W 004°34'1 1.5
2018-Jun-21 03:30N 47°32' W 004°34'1 1.6
2018-Jun-21 03:00N 47°33' W 004°35'1 1.6
2018-Jun-21 02:23N 47°34' W 004°35'1 1.6
2018-Jun-21 02:00N 47°34' W 004°36'1 1.7
2018-Jun-21 01:30N 47°35' W 004°36'1 1.9
2018-Jun-21 00:52N 47°36' W 004°37'1 2.2
2018-Jun-21 00:30N 47°37' W 004°38'1 2.4
2018-Jun-20 23:55N 47°38' W 004°39'1 3.1
2018-Jun-20 23:30N 47°39' W 004°40'2 1.3
2018-Jun-20 21:43N 47°37' W 004°39'3 9.0
2018-Jun-20 21:22N 47°35' W 004°35'4 9.6
2018-Jun-20 20:58N 47°34' W 004°30'1 1.6
2018-Jun-20 20:30N 47°34' W 004°29'1 2.0
2018-Jun-20 20:00N 47°34' W 004°30'1 1.8
2018-Jun-20 19:30N 47°35' W 004°31'1 1.6
2018-Jun-20 19:00N 47°35' W 004°32'1 1.5
2018-Jun-20 18:24N 47°36' W 004°33'1 1.4
2018-Jun-20 18:00N 47°36' W 004°34'1 1.5
2018-Jun-20 17:30N 47°36' W 004°35'1 1.6
2018-Jun-20 17:00N 47°37' W 004°36'1 1.6
2018-Jun-20 16:12N 47°37' W 004°38'0 1.3
2018-Jun-20 16:00N 47°37' W 004°38'1 1.2
2018-Jun-20 15:19N 47°37' W 004°39'2 6.5
2018-Jun-20 14:58N 47°35' W 004°39'2 0.8
2018-Jun-20 12:23N 47°35' W 004°42'1 1.6
2018-Jun-20 11:59N 47°36' W 004°43'1 1.8
2018-Jun-20 11:14N 47°37' W 004°44'1 1.9
2018-Jun-20 10:50N 47°38' W 004°44'1 2.0
2018-Jun-20 10:29N 47°38' W 004°45'1 2.1
2018-Jun-20 09:56N 47°39' W 004°46'1 2.0
2018-Jun-20 09:29N 47°40' W 004°47'1 2.0
2018-Jun-20 08:59N 47°40' W 004°48'1 1.8
2018-Jun-20 08:29N 47°41' W 004°49'1 1.8
2018-Jun-20 07:59N 47°41' W 004°50'1 1.5
2018-Jun-20 07:23N 47°42' W 004°52'1 1.4
2018-Jun-20 06:56N 47°42' W 004°52'1 1.2
2018-Jun-20 06:29N 47°42' W 004°53'1 1.2
2018-Jun-20 06:00N 47°42' W 004°54'1 1.6
2018-Jun-20 05:30N 47°42' W 004°55'4 7.7
2018-Jun-20 05:00N 47°40' W 004°60'611.4
2018-Jun-20 04:29N 47°35' W 005°05'4 7.8
2018-Jun-20 03:58N 47°32' W 005°09'0 0.9
2018-Jun-20 03:29N 47°32' W 005°09'0 0.7
2018-Jun-20 02:53N 47°33' W 005°09'0 0.8
2018-Jun-20 02:29N 47°33' W 005°09'1 1.1
2018-Jun-20 01:50N 47°34' W 005°08'1 1.6
2018-Jun-20 01:30N 47°34' W 005°08'4 1.6
2018-Jun-19 22:42N 47°38' W 005°07'0 1.8
2018-Jun-19 22:29N 47°39' W 005°07'9 2.3
2018-Jun-19 18:29N 47°48' W 005°03'0 0.5
2018-Jun-19 17:48N 47°47' W 005°03'0 1.6
2018-Jun-19 17:30N 47°47' W 005°03'1 1.7
2018-Jun-19 17:00N 47°47' W 005°05'2 3.6
2018-Jun-19 16:29N 47°46' W 005°07'6 9.9
2018-Jun-19 15:54N 47°45' W 005°16'1312.1
2018-Jun-19 14:49N 47°41' W 005°34'412.7
2018-Jun-19 14:30N 47°39' W 005°39'1313.1
2018-Jun-19 13:33N 47°28' W 005°49'512.5
2018-Jun-19 13:11N 47°24' W 005°53'311.8
2018-Jun-19 12:58N 47°22' W 005°55'711.9
2018-Jun-19 12:24N 47°17' W 006°00'1012.9
2018-Jun-19 11:40N 47°09' W 006°08'1012.9
2018-Jun-19 10:53N 47°00' W 006°16'1613.1
2018-Jun-19 09:40N 46°47' W 006°29'43111.0
2018-Jun-17 18:36N 40°08' W 010°12'1 9.6
2018-Jun-17 18:30N 40°07' W 010°13'5 9.3
2018-Jun-17 18:00N 40°03' W 010°15'4 8.8
2018-Jun-17 17:30N 39°59' W 010°18'4 9.0
2018-Jun-17 17:01N 39°55' W 010°20'5 9.4
2018-Jun-17 16:30N 39°50' W 010°23'5 9.4
2018-Jun-17 16:00N 39°46' W 010°25'26 9.4
2018-Jun-17 13:12N 39°22' W 010°39'3 8.8
2018-Jun-17 12:50N 39°19' W 010°41'3 8.3
2018-Jun-17 12:28N 39°16' W 010°42'5 8.6
2018-Jun-17 11:55N 39°12' W 010°45'5 9.1
2018-Jun-17 11:20N 39°07' W 010°45'3 8.6
2018-Jun-17 11:00N 39°04' W 010°45'5 8.3
2018-Jun-17 10:27N 38°59' W 010°45'5 8.9
2018-Jun-17 09:51N 38°54' W 010°45'7 8.5
2018-Jun-17 09:02N 38°47' W 010°46'0 9.0
2018-Jun-17 09:00N 38°47' W 010°46'5 8.5
2018-Jun-17 08:23N 38°42' W 010°46'3 9.0
2018-Jun-17 08:00N 38°38' W 010°46'4 8.8
2018-Jun-17 07:30N 38°34' W 010°45'5 8.9
2018-Jun-17 06:53N 38°28' W 010°44'3 8.6
2018-Jun-17 06:29N 38°25' W 010°43'7 9.4
2018-Jun-17 05:42N 38°18' W 010°41'2 8.6
2018-Jun-17 05:27N 38°16' W 010°40'7 9.2
2018-Jun-17 04:43N 38°09' W 010°38'6 9.1
2018-Jun-17 04:01N 38°03' W 010°36'0 9.8
2018-Jun-17 04:01N 38°03' W 010°36'21 9.5
2018-Jun-17 01:47N 37°42' W 010°30'3 9.3
2018-Jun-17 01:30N 37°40' W 010°29'5 9.2
2018-Jun-17 01:00N 37°35' W 010°28'5 8.7
2018-Jun-17 00:29N 37°31' W 010°27'42 8.7
2018-Jun-16 19:41N 36°50' W 010°15'2 9.0
2018-Jun-16 19:27N 36°48' W 010°15'4 8.5
2018-Jun-16 19:00N 36°44' W 010°14'4 8.6
2018-Jun-16 18:30N 36°40' W 010°13'5 9.2
2018-Jun-16 18:00N 36°36' W 010°11'5 9.9
2018-Jun-16 17:30N 36°32' W 010°07'5 9.4
2018-Jun-16 17:00N 36°28' W 010°03'5 9.0
2018-Jun-16 16:30N 36°25' W 009°59'14 9.0
2018-Jun-16 14:53N 36°16' W 009°45'19 9.1
2018-Jun-16 12:48N 36°06' W 009°25'3 9.4
2018-Jun-16 12:28N 36°05' W 009°21'6 9.7
2018-Jun-16 11:48N 36°03' W 009°14'1510.1
2018-Jun-16 10:20N 35°60' W 008°56'410.6
2018-Jun-16 10:00N 35°59' W 008°52'510.5
2018-Jun-16 09:30N 35°59' W 008°45'2711.5
2018-Jun-16 07:10N 35°59' W 008°12'813.7
2018-Jun-16 06:33N 35°59' W 008°01'114.0
2018-Jun-16 06:30N 35°59' W 008°01'713.6
2018-Jun-16 06:00N 35°59' W 007°52'612.5
2018-Jun-16 05:30N 35°59' W 007°44'612.7
2018-Jun-16 05:00N 35°59' W 007°37'712.8
2018-Jun-16 04:28N 35°59' W 007°28'613.1
2018-Jun-16 03:59N 35°59' W 007°20'713.2
2018-Jun-16 03:28N 35°58' W 007°12'613.1
2018-Jun-16 02:59N 35°58' W 007°04'613.1
2018-Jun-16 02:30N 35°58' W 006°56'5514.0
2018-Jun-15 22:36N 35°58' W 005°49'214.4
2018-Jun-15 22:29N 35°58' W 005°47'713.2
2018-Jun-15 21:55N 35°57' W 005°38'511.7
2018-Jun-15 21:31N 35°59' W 005°32'510.2
2018-Jun-15 21:01N 36°00' W 005°26'4 8.9
2018-Jun-15 20:30N 36°01' W 005°21'510.0
2018-Jun-15 20:00N 36°03' W 005°15'611.1
2018-Jun-15 19:29N 36°04' W 005°08'18513.3
2018-Jun-15 05:35N 36°25' W 001°20'1014.3
2018-Jun-15 04:53N 36°26' W 001°08'1014.6
2018-Jun-15 04:13N 36°28' W 000°56'314.4
2018-Jun-15 03:59N 36°29' W 000°52'714.1
2018-Jun-15 03:29N 36°29' W 000°43'714.4
2018-Jun-15 03:00N 36°30' W 000°35'714.8
2018-Jun-15 02:30N 36°31' W 000°26'714.8
2018-Jun-15 02:00N 36°32' W 000°17'914.8
2018-Jun-15 01:22N 36°34' W 000°05'814.6
2018-Jun-15 00:51N 36°35' E 000°04'814.8
2018-Jun-15 00:19N 36°36' E 000°14'514.9
2018-Jun-15 00:00N 36°36' E 000°20'814.6
2018-Jun-14 23:30N 36°37' E 000°29'714.6
2018-Jun-14 23:00N 36°38' E 000°38'714.4
2018-Jun-14 22:30N 36°39' E 000°47'1314.1
2018-Jun-14 21:36N 36°41' E 001°03'114.1
2018-Jun-14 21:30N 36°41' E 001°04'714.0
2018-Jun-14 21:00N 36°43' E 001°13'713.7
2018-Jun-14 20:30N 36°44' E 001°21'2013.5
2018-Jun-14 19:03N 36°46' E 001°46'013.7
2018-Jun-14 19:01N 36°46' E 001°46'713.8
2018-Jun-14 18:30N 36°48' E 001°55'713.8
2018-Jun-14 18:00N 36°49' E 002°03'3614.2
2018-Jun-14 15:31N 36°54' E 002°47'014.6
2018-Jun-14 15:30N 36°54' E 002°47'38 1.0
2018-Jun-12 23:38N 37°12' E 003°29'  

Dump ship's entire track history